Time;durP1;ratioP1;P1;durP2;ratioP2;P2;SDS_P1;SDS_P2;PMS_P1;PMS_P2;Temp;Humidity;BMP_temperature;BMP_pressure;BME280_temperature;BME280_humidity;BME280_pressure;Samples;Min_cycle;Max_cycle;Signal;HPM_P1;HPM_P2
2022/04/09 00:00:52;;;;;;;5.57;0.80;;;;;;;;;;5111767;28;20103;-59
2022/04/09 00:03:18;;;;;;;3.40;0.70;;;;;;;;;;5111848;28;20359;-64
2022/04/09 00:05:44;;;;;;;2.28;0.70;;;;;;;;;;5112097;28;20020;-59
2022/04/09 00:08:10;;;;;;;1.90;0.70;;;;;;;;;;5111793;28;20027;-63
2022/04/09 00:10:36;;;;;;;2.30;0.70;;;;;;;;;;5111615;28;20687;-63
2022/04/09 00:13:02;;;;;;;1.95;0.73;;;;;;;;;;5111814;28;20612;-60
2022/04/09 00:15:29;;;;;;;1.17;0.50;;;;;;;;;;5111852;28;20043;-59
2022/04/09 00:17:55;;;;;;;1.70;0.77;;;;;;;;;;5111720;28;20377;-60
2022/04/09 00:20:21;;;;;;;2.97;0.60;;;;;;;;;;5111746;28;20023;-60
2022/04/09 00:22:47;;;;;;;2.67;0.85;;;;;;;;;;5111977;28;20027;-60
2022/04/09 00:25:14;;;;;;;1.45;0.57;;;;;;;;;;5111947;28;20020;-60
2022/04/09 00:27:41;;;;;;;3.13;0.98;;;;;;;;;;5111834;28;20102;-59
2022/04/09 00:30:08;;;;;;;0.93;0.40;;;;;;;;;;5111905;28;20438;-65
2022/04/09 00:32:35;;;;;;;2.38;0.60;;;;;;;;;;5111063;28;20047;-61
2022/04/09 00:35:02;;;;;;;3.58;0.70;;;;;;;;;;5112027;28;20402;-64
2022/04/09 00:37:29;;;;;;;1.33;0.43;;;;;;;;;;5112390;28;20105;-60
2022/04/09 00:39:56;;;;;;;2.20;0.70;;;;;;;;;;5112265;28;20027;-59
2022/04/09 00:42:22;;;;;;;2.53;0.57;;;;;;;;;;5111632;28;20055;-57
2022/04/09 00:44:48;;;;;;;3.10;0.60;;;;;;;;;;5112230;28;20031;-59
2022/04/09 00:47:14;;;;;;;1.20;0.50;;;;;;;;;;5112484;28;20016;-58
2022/04/09 00:49:40;;;;;;;1.65;0.70;;;;;;;;;;5112328;28;20020;-61
2022/04/09 00:52:07;;;;;;;1.38;0.55;;;;;;;;;;5112005;28;20023;-59
2022/04/09 00:54:34;;;;;;;2.20;0.60;;;;;;;;;;5112267;28;20051;-56
2022/04/09 00:57:07;;;;;;;1.23;0.47;;;;;;;;;;5112004;28;20020;-57
2022/04/09 00:59:38;;;;;;;2.45;0.77;;;;;;;;;;5112036;28;20050;-57
2022/04/09 01:02:04;;;;;;;2.08;0.60;;;;;;;;;;5112074;28;20446;-57
2022/04/09 01:04:31;;;;;;;2.35;0.93;;;;;;;;;;5112022;28;20034;-57
2022/04/09 01:06:59;;;;;;;1.67;0.40;;;;;;;;;;5114980;28;20031;-57
2022/04/09 01:09:25;;;;;;;2.35;0.50;;;;;;;;;;5115862;28;20109;-57
2022/04/09 01:11:51;;;;;;;1.95;0.75;;;;;;;;;;5116037;28;20053;-57
2022/04/09 01:14:18;;;;;;;16.70;1.40;;;;;;;;;;5114567;28;20659;-59
2022/04/09 01:16:44;;;;;;;1.60;0.68;;;;;;;;;;5115962;28;20030;-61
2022/04/09 01:19:10;;;;;;;2.05;0.65;;;;;;;;;;5115550;28;20028;-61
2022/04/09 01:21:36;;;;;;;2.17;0.50;;;;;;;;;;5115097;28;20098;-55
2022/04/09 01:24:04;;;;;;;4.80;0.60;;;;;;;;;;5115109;28;20039;-57
2022/04/09 01:26:30;;;;;;;1.48;0.50;;;;;;;;;;5115500;28;20446;-56
2022/04/09 01:28:56;;;;;;;2.63;0.80;;;;;;;;;;5115308;28;20023;-56
2022/04/09 01:31:23;;;;;;;2.78;0.52;;;;;;;;;;5115215;28;20024;-59
2022/04/09 01:33:49;;;;;;;2.25;0.50;;;;;;;;;;5115231;28;20035;-56
2022/04/09 01:36:15;;;;;;;1.52;0.45;;;;;;;;;;5114780;28;20016;-58
2022/04/09 01:38:41;;;;;;;2.45;0.82;;;;;;;;;;5115355;28;20094;-56
2022/04/09 01:41:07;;;;;;;2.28;0.60;;;;;;;;;;5114749;28;20016;-59
2022/04/09 01:43:34;;;;;;;1.33;0.38;;;;;;;;;;5114943;28;20035;-58
2022/04/09 01:46:00;;;;;;;1.55;0.50;;;;;;;;;;5115035;28;20466;-57
2022/04/09 01:48:26;;;;;;;1.77;0.50;;;;;;;;;;5114925;28;20463;-59
2022/04/09 01:50:52;;;;;;;1.35;0.50;;;;;;;;;;5114920;28;20012;-57
2022/04/09 01:53:19;;;;;;;1.60;0.52;;;;;;;;;;5114424;28;20405;-59
2022/04/09 01:55:45;;;;;;;1.80;0.45;;;;;;;;;;5115035;28;20030;-59
2022/04/09 01:58:11;;;;;;;2.55;0.50;;;;;;;;;;5114844;28;20027;-59
2022/04/09 02:00:37;;;;;;;2.45;0.47;;;;;;;;;;5114577;28;20394;-61
2022/04/09 02:03:03;;;;;;;1.90;0.40;;;;;;;;;;5114106;28;20039;-59
2022/04/09 02:05:29;;;;;;;1.75;0.50;;;;;;;;;;5114353;28;20020;-62
2022/04/09 02:07:57;;;;;;;1.50;0.50;;;;;;;;;;5114549;28;20604;-59
2022/04/09 02:10:23;;;;;;;3.17;0.60;;;;;;;;;;5114397;28;20020;-59
2022/04/09 02:12:50;;;;;;;2.50;0.50;;;;;;;;;;5114055;28;20023;-60
2022/04/09 02:15:16;;;;;;;3.22;0.60;;;;;;;;;;5098757;28;20028;-61
2022/04/09 02:17:43;;;;;;;1.38;0.35;;;;;;;;;;5093518;28;20024;-60
2022/04/09 02:20:10;;;;;;;2.47;0.45;;;;;;;;;;5095018;28;20030;-62
2022/04/09 02:22:37;;;;;;;1.52;0.50;;;;;;;;;;5095995;28;20039;-59
2022/04/09 02:25:04;;;;;;;1.38;0.40;;;;;;;;;;5115476;28;20075;-59
2022/04/09 02:27:30;;;;;;;1.77;0.60;;;;;;;;;;5115384;28;20098;-63
2022/04/09 02:29:56;;;;;;;1.70;0.60;;;;;;;;;;5115337;28;20065;-62
2022/04/09 02:32:23;;;;;;;2.15;0.50;;;;;;;;;;5114497;28;20015;-60
2022/04/09 02:34:52;;;;;;;3.38;0.50;;;;;;;;;;5113294;28;20042;-59
2022/04/09 02:37:18;;;;;;;1.10;0.40;;;;;;;;;;5111895;28;20020;-59
2022/04/09 02:39:44;;;;;;;1.10;0.50;;;;;;;;;;5112535;28;20023;-60
2022/04/09 02:42:12;;;;;;;1.60;0.50;;;;;;;;;;5112257;28;20043;-60
2022/04/09 02:44:39;;;;;;;2.03;0.57;;;;;;;;;;5114315;28;20363;-59
2022/04/09 02:47:05;;;;;;;18.20;0.77;;;;;;;;;;5114152;28;20612;-60
2022/04/09 02:49:31;;;;;;;1.92;0.70;;;;;;;;;;5113735;28;20031;-60
2022/04/09 02:51:57;;;;;;;1.83;0.47;;;;;;;;;;5114084;28;20015;-60
2022/04/09 02:54:23;;;;;;;2.47;0.40;;;;;;;;;;5113775;28;20543;-63
2022/04/09 02:56:49;;;;;;;1.38;0.43;;;;;;;;;;5114323;28;20088;-62
2022/04/09 02:59:16;;;;;;;1.63;0.68;;;;;;;;;;5114176;28;20019;-62
2022/04/09 03:01:45;;;;;;;1.70;0.50;;;;;;;;;;5113906;28;20076;-57
2022/04/09 03:04:12;;;;;;;2.65;0.70;;;;;;;;;;5112333;28;20036;-58
2022/04/09 03:06:38;;;;;;;2.05;0.80;;;;;;;;;;5113786;28;20023;-59
2022/04/09 03:09:04;;;;;;;1.77;0.77;;;;;;;;;;5092995;28;20085;-57
2022/04/09 03:11:31;;;;;;;3.20;0.70;;;;;;;;;;5093178;28;20102;-59
2022/04/09 03:13:57;;;;;;;2.22;0.60;;;;;;;;;;5093043;28;20062;-61
2022/04/09 03:16:23;;;;;;;7.43;0.93;;;;;;;;;;5111814;28;20106;-61
2022/04/09 03:18:49;;;;;;;2.60;0.73;;;;;;;;;;5113328;28;20031;-60
2022/04/09 03:21:15;;;;;;;3.17;1.10;;;;;;;;;;5113732;28;20027;-60
2022/04/09 03:23:41;;;;;;;1.85;0.68;;;;;;;;;;5113555;28;20031;-58
2022/04/09 03:26:07;;;;;;;2.45;0.60;;;;;;;;;;5113285;28;20062;-62
2022/04/09 03:28:34;;;;;;;2.63;0.63;;;;;;;;;;5112936;28;20098;-60
2022/04/09 03:31:00;;;;;;;1.92;0.70;;;;;;;;;;5113138;28;20042;-60
2022/04/09 03:33:26;;;;;;;3.17;0.70;;;;;;;;;;5112992;28;20019;-59
2022/04/09 03:35:52;;;;;;;4.18;0.70;;;;;;;;;;5112945;28;20077;-59
2022/04/09 03:38:19;;;;;;;3.83;0.88;;;;;;;;;;5113209;28;20043;-59
2022/04/09 03:40:46;;;;;;;2.03;0.68;;;;;;;;;;5113365;28;20016;-59
2022/04/09 03:43:12;;;;;;;2.83;0.80;;;;;;;;;;5112842;28;20440;-60
2022/04/09 03:45:38;;;;;;;3.38;0.85;;;;;;;;;;5112904;28;20019;-60
2022/04/09 03:48:05;;;;;;;2.10;0.65;;;;;;;;;;5113219;28;20080;-62
2022/04/09 03:50:31;;;;;;;3.00;0.60;;;;;;;;;;5112879;28;20020;-59
2022/04/09 03:52:58;;;;;;;2.42;0.55;;;;;;;;;;5112933;28;20023;-59
2022/04/09 03:55:25;;;;;;;4.50;0.70;;;;;;;;;;5113209;28;20031;-58
2022/04/09 03:57:51;;;;;;;2.00;0.70;;;;;;;;;;5112854;28;20047;-59
2022/04/09 04:00:18;;;;;;;5.20;0.73;;;;;;;;;;5112933;28;20031;-59
2022/04/09 04:02:44;;;;;;;6.28;0.90;;;;;;;;;;5112575;28;20040;-59
2022/04/09 04:05:10;;;;;;;0.80;0.38;;;;;;;;;;5112584;28;20030;-59
2022/04/09 04:07:36;;;;;;;1.90;0.70;;;;;;;;;;5112982;28;20152;-59
2022/04/09 04:10:09;;;;;;;4.28;0.68;;;;;;;;;;5112737;28;20016;-59
2022/04/09 04:12:35;;;;;;;1.83;0.75;;;;;;;;;;5112596;28;20011;-59
2022/04/09 04:15:02;;;;;;;1.83;0.60;;;;;;;;;;5112994;28;20015;-58
2022/04/09 04:17:38;;;;;;;2.92;1.00;;;;;;;;;;5112361;28;20474;-63
2022/04/09 04:20:05;;;;;;;1.67;0.75;;;;;;;;;;5112122;28;20047;-64
2022/04/09 04:22:31;;;;;;;1.95;0.50;;;;;;;;;;5111956;28;20020;-59
2022/04/09 04:24:57;;;;;;;2.90;0.70;;;;;;;;;;5112003;28;20035;-62
2022/04/09 04:27:23;;;;;;;1.77;0.50;;;;;;;;;;5111759;28;20027;-57
2022/04/09 04:29:49;;;;;;;2.15;0.60;;;;;;;;;;5112155;28;20038;-60
2022/04/09 04:32:15;;;;;;;4.53;0.90;;;;;;;;;;5112299;28;20016;-59
2022/04/09 04:34:41;;;;;;;1.77;0.57;;;;;;;;;;5112472;28;20034;-59
2022/04/09 04:37:07;;;;;;;1.38;0.52;;;;;;;;;;5111917;28;20020;-59
2022/04/09 04:39:33;;;;;;;2.65;0.57;;;;;;;;;;5111996;28;20027;-59
2022/04/09 04:41:59;;;;;;;2.15;0.57;;;;;;;;;;5115167;28;20050;-59
2022/04/09 04:44:25;;;;;;;3.92;0.73;;;;;;;;;;5116435;28;20074;-58
2022/04/09 04:46:51;;;;;;;2.35;0.60;;;;;;;;;;5116335;28;20064;-59
2022/04/09 04:49:17;;;;;;;0.95;0.60;;;;;;;;;;5116352;28;20031;-58
2022/04/09 04:51:43;;;;;;;1.13;0.50;;;;;;;;;;5116578;28;20098;-59
2022/04/09 04:54:10;;;;;;;2.10;0.60;;;;;;;;;;5116734;28;20023;-63
2022/04/09 04:56:36;;;;;;;1.52;0.65;;;;;;;;;;5116340;28;20023;-59
2022/04/09 04:59:02;;;;;;;2.55;0.77;;;;;;;;;;5116019;28;20076;-59
2022/04/09 05:01:28;;;;;;;1.30;0.52;;;;;;;;;;5115646;28;20028;-58
2022/04/09 05:03:54;;;;;;;2.63;0.60;;;;;;;;;;5115514;28;20032;-58
2022/04/09 05:06:21;;;;;;;2.38;0.70;;;;;;;;;;5115804;28;20021;-59
2022/04/09 05:08:47;;;;;;;1.92;0.57;;;;;;;;;;5114016;28;20028;-59
2022/04/09 05:11:13;;;;;;;2.30;0.52;;;;;;;;;;5115993;28;20024;-62
2022/04/09 05:13:39;;;;;;;1.60;0.70;;;;;;;;;;5116163;28;20046;-62
2022/04/09 05:16:05;;;;;;;1.33;0.60;;;;;;;;;;5115876;28;20107;-59
2022/04/09 05:18:32;;;;;;;2.15;0.50;;;;;;;;;;5115884;28;20023;-59
2022/04/09 05:20:58;;;;;;;4.20;0.70;;;;;;;;;;5115996;28;20022;-59
2022/04/09 05:23:24;;;;;;;3.60;0.80;;;;;;;;;;5115899;28;20074;-59
2022/04/09 05:25:51;;;;;;;7.22;0.63;;;;;;;;;;5115856;28;20020;-58
2022/04/09 05:28:17;;;;;;;13.60;0.60;;;;;;;;;;5115895;28;20023;-59
2022/04/09 05:30:46;;;;;;;7.88;0.80;;;;;;;;;;5115245;28;20035;-59
2022/04/09 05:33:12;;;;;;;7.38;0.90;;;;;;;;;;5115454;28;20394;-58
2022/04/09 05:35:38;;;;;;;2.83;0.77;;;;;;;;;;5114215;28;20107;-60
2022/04/09 05:38:07;;;;;;;4.97;0.90;;;;;;;;;;5098011;28;20447;-62
2022/04/09 05:40:34;;;;;;;6.60;0.90;;;;;;;;;;5108370;28;20122;-61
2022/04/09 05:43:00;;;;;;;5.72;0.90;;;;;;;;;;5106836;28;20044;-61
2022/04/09 05:45:26;;;;;;;3.42;0.77;;;;;;;;;;5096081;28;20399;-61
2022/04/09 05:47:52;;;;;;;9.20;1.65;;;;;;;;;;5113480;28;20093;-62
2022/04/09 05:50:18;;;;;;;7.63;0.85;;;;;;;;;;5113319;28;20031;-65
2022/04/09 05:52:44;;;;;;;20.35;1.10;;;;;;;;;;5113038;28;20016;-62
2022/04/09 05:55:11;;;;;;;3.40;0.73;;;;;;;;;;5112817;28;20024;-63
2022/04/09 05:57:38;;;;;;;5.93;1.00;;;;;;;;;;5100111;28;20581;-64
2022/04/09 06:00:07;;;;;;;6.97;1.08;;;;;;;;;;5109882;28;20028;-65
2022/04/09 06:02:35;;;;;;;8.85;1.20;;;;;;;;;;5112782;28;20019;-64
2022/04/09 06:05:02;;;;;;;7.18;1.00;;;;;;;;;;5113176;28;20016;-65
2022/04/09 06:07:28;;;;;;;7.93;0.98;;;;;;;;;;5104299;28;20091;-64
2022/04/09 06:09:54;;;;;;;4.50;0.60;;;;;;;;;;5104327;28;20578;-65
2022/04/09 06:12:20;;;;;;;2.00;0.63;;;;;;;;;;5113013;28;20081;-64
2022/04/09 06:14:46;;;;;;;13.35;1.00;;;;;;;;;;5097844;28;20027;-61
2022/04/09 06:17:12;;;;;;;8.57;0.98;;;;;;;;;;5113237;28;20023;-61
2022/04/09 06:19:38;;;;;;;8.95;1.00;;;;;;;;;;5113190;28;20152;-61
2022/04/09 06:22:04;;;;;;;2.08;0.77;;;;;;;;;;5112852;28;20031;-64
2022/04/09 06:24:30;;;;;;;2.25;0.57;;;;;;;;;;5112821;28;20118;-61
2022/04/09 06:26:56;;;;;;;1.88;0.70;;;;;;;;;;5113016;28;20022;-61
2022/04/09 06:29:22;;;;;;;3.38;0.70;;;;;;;;;;5110318;28;20024;-62
2022/04/09 06:31:48;;;;;;;6.28;0.85;;;;;;;;;;5103615;28;20024;-61
2022/04/09 06:34:15;;;;;;;4.03;0.73;;;;;;;;;;5112443;28;20024;-64
2022/04/09 06:36:41;;;;;;;10.77;1.67;;;;;;;;;;5111737;28;20065;-62
2022/04/09 06:39:07;;;;;;;14.07;1.48;;;;;;;;;;5111730;28;20030;-62
2022/04/09 06:41:33;;;;;;;14.48;1.65;;;;;;;;;;5060715;28;1463904;-62
2022/04/09 06:44:00;;;;;;;20.52;1.70;;;;;;;;;;5112820;28;20035;-61
2022/04/09 06:46:26;;;;;;;13.82;1.92;;;;;;;;;;5113106;28;20023;-63
2022/04/09 06:48:52;;;;;;;10.10;1.40;;;;;;;;;;5110910;28;20027;-63
2022/04/09 06:51:18;;;;;;;12.70;1.67;;;;;;;;;;5112797;28;20110;-62
2022/04/09 06:53:44;;;;;;;9.88;1.33;;;;;;;;;;5113744;28;20027;-62
2022/04/09 06:56:10;;;;;;;17.77;1.70;;;;;;;;;;5113388;28;20026;-61
2022/04/09 06:58:36;;;;;;;7.75;1.10;;;;;;;;;;5113103;28;20051;-62
2022/04/09 07:01:03;;;;;;;5.47;1.00;;;;;;;;;;5113184;28;20011;-62
2022/04/09 07:03:29;;;;;;;9.48;1.10;;;;;;;;;;5112279;28;20394;-59
2022/04/09 07:05:55;;;;;;;6.43;1.05;;;;;;;;;;5113290;28;20022;-62
2022/04/09 07:08:22;;;;;;;3.83;0.73;;;;;;;;;;5113275;28;20487;-61
2022/04/09 07:10:48;;;;;;;9.38;0.90;;;;;;;;;;5112908;28;20024;-61
2022/04/09 07:13:14;;;;;;;4.55;1.00;;;;;;;;;;5113283;28;20390;-62
2022/04/09 07:15:40;;;;;;;2.83;0.70;;;;;;;;;;5113210;28;20107;-61
2022/04/09 07:18:06;;;;;;;4.03;1.00;;;;;;;;;;5113001;28;20159;-62
2022/04/09 07:20:36;;;;;;;3.85;1.02;;;;;;;;;;5112828;28;20497;-63
2022/04/09 07:23:02;;;;;;;9.05;1.10;;;;;;;;;;5112923;28;20031;-62
2022/04/09 07:25:29;;;;;;;2.92;0.90;;;;;;;;;;5113202;28;20418;-63
2022/04/09 07:27:55;;;;;;;2.85;0.75;;;;;;;;;;5113132;28;20480;-62
2022/04/09 07:30:21;;;;;;;10.45;1.05;;;;;;;;;;5112857;28;20020;-61
2022/04/09 07:32:48;;;;;;;3.95;0.73;;;;;;;;;;5112566;28;20024;-63
2022/04/09 07:35:14;;;;;;;5.18;0.88;;;;;;;;;;5112738;28;20498;-62
2022/04/09 07:37:41;;;;;;;3.28;0.90;;;;;;;;;;5112827;28;20051;-63
2022/04/09 07:40:09;;;;;;;3.30;0.82;;;;;;;;;;5112784;28;20083;-63
2022/04/09 07:42:35;;;;;;;2.80;0.70;;;;;;;;;;5112339;28;20070;-62
2022/04/09 07:45:01;;;;;;;4.03;0.82;;;;;;;;;;5112713;28;20035;-62
2022/04/09 07:47:27;;;;;;;3.00;1.00;;;;;;;;;;5112745;28;20020;-62
2022/04/09 07:49:54;;;;;;;4.45;0.70;;;;;;;;;;5112561;28;20023;-62
2022/04/09 07:52:20;;;;;;;2.95;0.50;;;;;;;;;;5112629;28;20030;-61
2022/04/09 07:54:46;;;;;;;3.00;0.90;;;;;;;;;;5112500;28;20541;-61
2022/04/09 07:57:12;;;;;;;3.92;1.08;;;;;;;;;;5112558;28;20028;-63
2022/04/09 07:59:38;;;;;;;3.78;0.80;;;;;;;;;;5109413;28;20020;-64
2022/04/09 08:02:04;;;;;;;1.65;0.57;;;;;;;;;;5112442;28;20112;-64
2022/04/09 08:04:30;;;;;;;2.92;0.52;;;;;;;;;;5112606;28;20038;-63
2022/04/09 08:06:56;;;;;;;1.48;0.45;;;;;;;;;;5112809;28;20037;-62
2022/04/09 08:09:22;;;;;;;1.67;0.60;;;;;;;;;;5112551;28;20106;-61
2022/04/09 08:11:49;;;;;;;1.60;0.65;;;;;;;;;;5112283;28;20037;-61
2022/04/09 08:14:15;;;;;;;1.92;0.50;;;;;;;;;;5112428;28;20015;-62
2022/04/09 08:16:41;;;;;;;1.67;0.52;;;;;;;;;;5111126;28;20103;-62
2022/04/09 08:19:07;;;;;;;2.35;0.63;;;;;;;;;;5112523;28;20016;-61
2022/04/09 08:21:34;;;;;;;1.67;0.55;;;;;;;;;;5112123;28;20456;-63
2022/04/09 08:24:00;;;;;;;1.13;0.40;;;;;;;;;;5111978;28;20035;-61
2022/04/09 08:26:26;;;;;;;2.42;0.60;;;;;;;;;;5112400;28;20507;-59
2022/04/09 08:28:52;;;;;;;0.57;0.30;;;;;;;;;;5112264;28;20035;-61
2022/04/09 08:31:19;;;;;;;0.98;0.40;;;;;;;;;;5112379;28;20020;-62
2022/04/09 08:33:45;;;;;;;1.30;0.50;;;;;;;;;;5111993;28;20012;-61
2022/04/09 08:36:11;;;;;;;3.63;0.47;;;;;;;;;;5112183;28;20028;-63
2022/04/09 08:38:38;;;;;;;4.72;0.55;;;;;;;;;;5112369;28;20057;-61
2022/04/09 08:41:04;;;;;;;0.85;0.40;;;;;;;;;;5111890;28;20094;-61
2022/04/09 08:43:30;;;;;;;1.52;0.50;;;;;;;;;;5111429;28;20073;-61
2022/04/09 08:45:59;;;;;;;2.05;0.43;;;;;;;;;;5111828;28;20015;-62
2022/04/09 08:48:25;;;;;;;1.60;0.63;;;;;;;;;;5111871;28;20093;-61
2022/04/09 08:50:51;;;;;;;4.30;0.80;;;;;;;;;;5111780;28;20020;-63
2022/04/09 08:53:17;;;;;;;1.23;0.43;;;;;;;;;;5111589;28;20497;-61
2022/04/09 08:55:45;;;;;;;1.17;0.50;;;;;;;;;;5091398;28;20050;-61
2022/04/09 08:58:11;;;;;;;1.13;0.50;;;;;;;;;;5091247;28;20040;-62
2022/04/09 09:00:37;;;;;;;4.20;0.43;;;;;;;;;;5091373;28;20028;-62
2022/04/09 09:03:05;;;;;;;0.95;0.40;;;;;;;;;;5091224;28;20035;-61
2022/04/09 09:05:38;;;;;;;1.13;0.50;;;;;;;;;;5107460;28;20050;-61
2022/04/09 09:08:04;;;;;;;1.17;0.50;;;;;;;;;;5111800;28;20479;-62
2022/04/09 09:10:31;;;;;;;0.57;0.30;;;;;;;;;;5112109;28;20028;-61
2022/04/09 09:12:59;;;;;;;1.05;0.50;;;;;;;;;;5111751;28;20027;-62
2022/04/09 09:15:25;;;;;;;1.38;0.60;;;;;;;;;;5111472;28;20024;-62
2022/04/09 09:17:58;;;;;;;3.50;0.60;;;;;;;;;;5111695;28;20509;-61
2022/04/09 09:20:24;;;;;;;;;;;;;;;;;;5112063;28;20073;-62
2022/04/09 09:22:50;;;;;;;1.67;0.43;;;;;;;;;;5111352;28;19908;-62
2022/04/09 09:25:17;;;;;;;2.17;0.73;;;;;;;;;;5111318;28;20028;-64
2022/04/09 09:27:43;;;;;;;1.95;0.60;;;;;;;;;;5113895;28;20047;-61
2022/04/09 09:30:13;;;;;;;2.00;0.73;;;;;;;;;;5115192;28;20032;-62
2022/04/09 09:32:41;;;;;;;1.83;0.70;;;;;;;;;;5115132;28;20016;-61
2022/04/09 09:35:09;;;;;;;1.98;0.65;;;;;;;;;;5114920;28;20446;-61
2022/04/09 09:37:35;;;;;;;0.73;0.40;;;;;;;;;;5115147;28;20023;-61
2022/04/09 09:40:02;;;;;;;1.92;0.60;;;;;;;;;;5114894;28;20028;-61
2022/04/09 09:42:28;;;;;;;1.85;0.70;;;;;;;;;;5114707;28;20044;-61
2022/04/09 09:44:54;;;;;;;2.08;0.57;;;;;;;;;;5114920;28;20482;-61
2022/04/09 09:47:20;;;;;;;1.83;0.45;;;;;;;;;;5114271;28;20035;-63
2022/04/09 09:49:59;;;;;;;1.45;0.65;;;;;;;;;;5114665;28;20020;-64
2022/04/09 09:52:29;;;;;;;2.85;0.60;;;;;;;;;;5114713;28;20026;-63
2022/04/09 09:54:55;;;;;;;0.90;0.50;;;;;;;;;;5114508;28;20019;-61
2022/04/09 09:57:22;;;;;;;1.63;0.50;;;;;;;;;;5114313;28;20051;-63
2022/04/09 09:59:53;;;;;;;2.60;0.95;;;;;;;;;;5112240;28;20056;-62
2022/04/09 10:02:23;;;;;;;1.17;0.65;;;;;;;;;;5113313;28;20020;-61
2022/04/09 10:04:50;;;;;;;1.05;0.50;;;;;;;;;;5114370;28;20032;-62
2022/04/09 10:07:16;;;;;;;0.75;0.50;;;;;;;;;;5114239;28;20482;-61
2022/04/09 10:09:42;;;;;;;0.82;0.40;;;;;;;;;;5114511;28;20107;-61
2022/04/09 10:12:12;;;;;;;0.70;0.43;;;;;;;;;;5113963;28;20024;-61
2022/04/09 10:14:40;;;;;;;1.73;0.63;;;;;;;;;;5112450;28;20581;-62
2022/04/09 10:17:07;;;;;;;1.23;0.40;;;;;;;;;;5102530;28;20076;-61
2022/04/09 10:19:38;;;;;;;1.45;0.50;;;;;;;;;;5114246;28;20023;-63
2022/04/09 10:22:04;;;;;;;3.70;0.73;;;;;;;;;;5114244;28;20436;-61
2022/04/09 10:24:30;;;;;;;2.03;0.80;;;;;;;;;;5114106;28;20034;-62
2022/04/09 10:26:58;;;;;;;2.10;0.70;;;;;;;;;;5113979;28;20092;-61
2022/04/09 10:29:24;;;;;;;1.98;0.70;;;;;;;;;;5113701;28;20637;-62
2022/04/09 10:31:51;;;;;;;1.77;0.57;;;;;;;;;;5113796;28;20076;-62
2022/04/09 10:34:20;;;;;;;0.65;0.40;;;;;;;;;;5114015;28;20103;-63
2022/04/09 10:36:46;;;;;;;1.85;0.85;;;;;;;;;;5113854;28;20023;-61
2022/04/09 10:39:25;;;;;;;1.08;0.50;;;;;;;;;;5112722;28;20076;-61
2022/04/09 10:41:51;;;;;;;2.08;0.68;;;;;;;;;;5113490;28;20044;-61
2022/04/09 10:44:35;;;;;;;1.42;0.63;;;;;;;;;;5113691;28;20038;-63
2022/04/09 10:47:02;;;;;;;0.73;0.40;;;;;;;;;;5113882;28;20051;-62
2022/04/09 10:49:29;;;;;;;1.75;0.70;;;;;;;;;;5113330;28;20059;-62
2022/04/09 10:52:06;;;;;;;1.70;0.60;;;;;;;;;;5113284;28;20028;-61
2022/04/09 10:54:33;;;;;;;1.92;0.57;;;;;;;;;;5113461;28;20019;-63
2022/04/09 10:57:21;;;;;;;0.47;0.40;;;;;;;;;;5113611;28;20047;-63
2022/04/09 10:59:58;;;;;;;3.30;0.63;;;;;;;;;;5113005;28;20022;-63
2022/04/09 11:02:25;;;;;;;2.53;0.80;;;;;;;;;;5113319;28;20059;-62
2022/04/09 11:04:51;;;;;;;1.77;0.65;;;;;;;;;;5113120;28;20047;-61
2022/04/09 11:07:21;;;;;;;5.15;0.80;;;;;;;;;;5113051;28;20439;-61
2022/04/09 11:09:51;;;;;;;1.17;0.57;;;;;;;;;;5112813;28;20028;-62
2022/04/09 11:12:19;;;;;;;2.92;0.50;;;;;;;;;;5113226;28;20050;-63
2022/04/09 11:14:47;;;;;;;2.40;0.70;;;;;;;;;;5113181;28;20015;-63
2022/04/09 11:17:16;;;;;;;1.17;0.55;;;;;;;;;;5113211;28;20145;-61
2022/04/09 11:19:43;;;;;;;1.10;0.50;;;;;;;;;;5112846;28;20042;-61
2022/04/09 11:22:10;;;;;;;1.42;0.57;;;;;;;;;;5113031;28;20505;-63
2022/04/09 11:24:37;;;;;;;3.05;0.52;;;;;;;;;;5112818;28;20032;-61
2022/04/09 11:27:03;;;;;;;1.70;0.50;;;;;;;;;;5112888;28;20600;-61
2022/04/09 11:29:36;;;;;;;2.17;0.50;;;;;;;;;;5112690;28;20034;-61
2022/04/09 11:32:02;;;;;;;1.08;0.63;;;;;;;;;;5112673;28;20031;-62
2022/04/09 11:34:29;;;;;;;0.85;0.55;;;;;;;;;;5112819;28;20036;-61
2022/04/09 11:37:10;;;;;;;1.88;0.60;;;;;;;;;;5112665;28;20015;-62
2022/04/09 11:39:40;;;;;;;4.22;0.73;;;;;;;;;;5112369;28;20039;-62
2022/04/09 11:42:07;;;;;;;2.05;0.60;;;;;;;;;;5112442;28;20047;-61
2022/04/09 11:44:33;;;;;;;1.15;0.55;;;;;;;;;;5112576;28;20524;-62
2022/04/09 11:47:19;;;;;;;1.52;0.88;;;;;;;;;;5112589;28;20090;-62
2022/04/09 11:49:50;;;;;;;0.88;0.45;;;;;;;;;;5111858;28;20028;-62
2022/04/09 11:52:29;;;;;;;1.38;0.50;;;;;;;;;;5112399;28;20020;-63
2022/04/09 11:54:55;;;;;;;1.45;0.70;;;;;;;;;;5112446;28;20023;-62
2022/04/09 11:57:22;;;;;;;1.95;0.60;;;;;;;;;;5112446;28;20023;-62
2022/04/09 11:59:54;;;;;;;1.88;0.90;;;;;;;;;;5112022;28;20506;-63
2022/04/09 12:02:25;;;;;;;2.05;0.70;;;;;;;;;;5108534;28;20039;-62
2022/04/09 12:04:51;;;;;;;2.35;0.80;;;;;;;;;;5112067;28;20032;-63
2022/04/09 12:07:17;;;;;;;0.98;0.50;;;;;;;;;;5112117;28;20107;-61
2022/04/09 12:09:44;;;;;;;4.10;0.70;;;;;;;;;;5112206;28;20065;-63
2022/04/09 12:12:10;;;;;;;1.38;0.57;;;;;;;;;;5111837;28;20035;-63
2022/04/09 12:14:36;;;;;;;2.30;0.85;;;;;;;;;;5112195;28;20023;-63
2022/04/09 12:17:09;;;;;;;1.25;0.60;;;;;;;;;;5111018;28;20028;-61
2022/04/09 12:19:37;;;;;;;2.60;0.70;;;;;;;;;;5112108;28;20024;-62
2022/04/09 12:22:20;;;;;;;2.03;0.75;;;;;;;;;;5111855;28;20474;-62
2022/04/09 12:24:47;;;;;;;;;;;;;;;;;;5112397;28;20036;-61
2022/04/09 12:27:13;;;;;;;2.00;0.82;;;;;;;;;;5112039;28;19933;-61
2022/04/09 12:29:47;;;;;;;2.53;0.90;;;;;;;;;;5112003;28;20012;-61
2022/04/09 12:32:14;;;;;;;2.53;0.75;;;;;;;;;;5111901;28;20390;-61
2022/04/09 12:34:52;;;;;;;2.00;0.70;;;;;;;;;;5111899;28;20107;-62
2022/04/09 12:37:19;;;;;;;3.72;0.90;;;;;;;;;;5112014;28;20027;-61
2022/04/09 12:39:46;;;;;;;2.22;0.85;;;;;;;;;;5111784;28;20351;-62
2022/04/09 12:42:12;;;;;;;5.20;1.10;;;;;;;;;;5111081;28;20073;-61
2022/04/09 12:44:38;;;;;;;1.85;0.77;;;;;;;;;;5111287;28;20134;-61
2022/04/09 12:47:05;;;;;;;2.95;0.82;;;;;;;;;;5111815;28;20073;-60
2022/04/09 12:49:34;;;;;;;1.70;0.57;;;;;;;;;;5111835;28;20030;-61
2022/04/09 12:52:01;;;;;;;4.30;0.80;;;;;;;;;;5111586;28;20020;-62
2022/04/09 12:54:28;;;;;;;3.92;0.70;;;;;;;;;;5111526;28;20027;-61
2022/04/09 12:56:54;;;;;;;3.17;0.80;;;;;;;;;;5111702;28;20394;-61
2022/04/09 12:59:20;;;;;;;2.63;0.73;;;;;;;;;;5111529;28;20461;-61
2022/04/09 13:01:47;;;;;;;3.03;0.90;;;;;;;;;;5112145;28;20467;-62
2022/04/09 13:04:13;;;;;;;2.05;0.70;;;;;;;;;;5115285;28;20031;-61
2022/04/09 13:06:40;;;;;;;2.38;0.73;;;;;;;;;;5115606;28;20028;-61
2022/04/09 13:09:08;;;;;;;3.65;1.10;;;;;;;;;;5115602;28;20019;-62
2022/04/09 13:11:34;;;;;;;1.50;0.50;;;;;;;;;;5115595;28;20020;-61
2022/04/09 13:14:00;;;;;;;3.35;0.85;;;;;;;;;;5115434;28;20106;-61
2022/04/09 13:16:26;;;;;;;2.38;0.80;;;;;;;;;;5115547;28;20462;-63
2022/04/09 13:18:53;;;;;;;1.45;0.70;;;;;;;;;;5115461;28;20457;-62
2022/04/09 13:21:19;;;;;;;3.33;1.00;;;;;;;;;;5115214;28;20565;-62
2022/04/09 13:23:45;;;;;;;3.80;0.70;;;;;;;;;;5114890;28;20040;-62
2022/04/09 13:26:11;;;;;;;6.15;1.05;;;;;;;;;;5115322;28;20091;-63
2022/04/09 13:28:37;;;;;;;3.55;1.05;;;;;;;;;;5115217;28;20024;-62
2022/04/09 13:31:03;;;;;;;8.07;0.90;;;;;;;;;;5115297;28;20024;-61
2022/04/09 13:33:29;;;;;;;2.17;0.77;;;;;;;;;;5114927;28;20141;-62
2022/04/09 13:35:55;;;;;;;4.57;0.85;;;;;;;;;;5115041;28;20098;-62
2022/04/09 13:38:21;;;;;;;3.78;0.70;;;;;;;;;;5115092;28;20031;-61
2022/04/09 13:40:47;;;;;;;4.35;0.88;;;;;;;;;;5115194;28;20028;-61
2022/04/09 13:43:15;;;;;;;3.70;1.00;;;;;;;;;;5114219;28;20170;-62
2022/04/09 13:45:42;;;;;;;1.88;0.70;;;;;;;;;;5115039;28;20023;-61
2022/04/09 13:48:08;;;;;;;1.90;0.60;;;;;;;;;;5114976;28;20088;-61
2022/04/09 13:50:35;;;;;;;3.55;0.93;;;;;;;;;;5114879;28;20145;-61
2022/04/09 13:53:01;;;;;;;2.60;0.90;;;;;;;;;;5114741;28;20027;-60
2022/04/09 13:55:27;;;;;;;3.80;0.93;;;;;;;;;;5110591;28;20074;-60
2022/04/09 13:57:53;;;;;;;4.25;1.00;;;;;;;;;;5104276;28;20035;-60
2022/04/09 14:00:19;;;;;;;10.23;1.48;;;;;;;;;;5114405;28;20030;-61
2022/04/09 14:02:46;;;;;;;9.98;1.88;;;;;;;;;;5110982;28;20072;-62
2022/04/09 14:05:12;;;;;;;5.97;1.42;;;;;;;;;;5108702;28;20038;-60
2022/04/09 14:07:38;;;;;;;6.35;1.20;;;;;;;;;;5113561;28;20048;-63
2022/04/09 14:10:05;;;;;;;21.13;1.98;;;;;;;;;;5100475;28;20024;-62
2022/04/09 14:12:34;;;;;;;9.98;0.98;;;;;;;;;;5099297;28;20019;-61
2022/04/09 14:15:00;;;;;;;6.57;1.35;;;;;;;;;;5100235;28;20471;-62
2022/04/09 14:17:26;;;;;;;17.23;1.92;;;;;;;;;;5101166;28;20028;-62
2022/04/09 14:19:53;;;;;;;16.42;2.80;;;;;;;;;;5112718;28;20016;-60
2022/04/09 14:22:20;;;;;;;39.00;3.47;;;;;;;;;;5096965;28;20115;-61
2022/04/09 14:24:46;;;;;;;10.98;2.10;;;;;;;;;;5111460;28;20071;-61
2022/04/09 14:27:12;;;;;;;14.38;2.08;;;;;;;;;;5102652;28;20031;-61
2022/04/09 14:29:38;;;;;;;17.02;2.47;;;;;;;;;;5075179;28;20462;-60
2022/04/09 14:32:05;;;;;;;9.50;1.90;;;;;;;;;;5093011;28;20028;-60
2022/04/09 14:34:31;;;;;;;7.00;1.67;;;;;;;;;;5093107;28;20044;-60
2022/04/09 14:36:57;;;;;;;8.68;1.73;;;;;;;;;;5093319;28;20513;-60
2022/04/09 14:39:23;;;;;;;13.18;1.90;;;;;;;;;;5103777;28;20019;-62
2022/04/09 14:41:49;;;;;;;6.15;1.42;;;;;;;;;;5113228;28;20040;-61